createdAt,value
2022-10-06T00:01:14.794Z,97.58
2022-10-06T00:03:43.500Z,97.68
2022-10-06T00:06:15.020Z,97.77
2022-10-06T00:08:44.121Z,97.76
2022-10-06T00:11:13.410Z,98.04
2022-10-06T00:13:41.892Z,97.99
2022-10-06T00:16:17.392Z,98.14
2022-10-06T00:18:45.612Z,98.06
2022-10-06T00:21:14.020Z,98.30
2022-10-06T00:23:42.376Z,98.36
2022-10-06T00:26:17.617Z,98.48
2022-10-06T00:28:49.100Z,98.26
2022-10-06T00:31:19.531Z,98.30
2022-10-06T00:33:49.326Z,98.23
2022-10-06T00:36:17.572Z,98.10
2022-10-06T00:38:46.085Z,97.84
2022-10-06T00:41:15.606Z,97.62
2022-10-06T00:43:58.091Z,97.48
2022-10-06T00:46:33.992Z,97.55
2022-10-06T00:49:07.366Z,97.35
2022-10-06T00:51:36.402Z,97.50
2022-10-06T00:54:04.600Z,97.44
2022-10-06T00:56:32.576Z,97.46
2022-10-06T00:59:00.308Z,97.67
2022-10-06T01:01:30.712Z,97.63
2022-10-06T01:04:05.972Z,97.60
2022-10-06T01:06:48.240Z,97.66
2022-10-06T01:09:17.791Z,97.55
2022-10-06T01:11:48.328Z,97.59
2022-10-06T01:14:17.371Z,97.65
2022-10-06T01:16:49.250Z,97.47
2022-10-06T01:19:28.314Z,97.32
2022-10-06T01:21:58.742Z,97.30
2022-10-06T01:24:28.533Z,97.29
2022-10-06T01:26:57.802Z,97.16
2022-10-06T01:29:26.526Z,97.07
2022-10-06T01:31:55.342Z,96.94
2022-10-06T01:34:26.268Z,96.87
2022-10-06T01:36:54.643Z,96.67
2022-10-06T01:39:22.593Z,96.33
2022-10-06T01:41:50.747Z,96.20
2022-10-06T01:44:18.955Z,95.96
2022-10-06T01:46:47.055Z,95.82
2022-10-06T01:49:14.925Z,95.82
2022-10-06T01:51:45.423Z,95.89
2022-10-06T01:54:13.492Z,95.89
2022-10-06T01:56:41.450Z,96.08
2022-10-06T01:59:09.338Z,96.07
2022-10-06T02:01:37.224Z,96.21
2022-10-06T02:04:05.505Z,96.33
2022-10-06T02:06:33.697Z,96.42
2022-10-06T02:09:01.606Z,96.49
2022-10-06T02:11:29.595Z,96.55
2022-10-06T02:13:57.455Z,96.56
2022-10-06T02:16:25.465Z,96.75
2022-10-06T02:18:54.614Z,96.54
2022-10-06T02:21:24.317Z,96.31
2022-10-06T02:23:52.176Z,96.70
2022-10-06T02:26:20.460Z,96.47
2022-10-06T02:28:50.542Z,96.61
2022-10-06T02:31:22.098Z,96.77
2022-10-06T02:33:50.099Z,96.77
2022-10-06T02:36:19.725Z,97.06
2022-10-06T02:38:48.097Z,97.04
2022-10-06T02:41:16.466Z,97.15
2022-10-06T02:43:44.569Z,97.02
2022-10-06T02:46:22.163Z,97.27
2022-10-06T02:48:53.791Z,97.33
2022-10-06T02:51:22.596Z,97.31
2022-10-06T02:53:51.766Z,97.49
2022-10-06T02:56:22.216Z,97.63
2022-10-06T02:58:51.393Z,97.66
2022-10-06T03:01:26.125Z,97.52
2022-10-06T03:03:57.383Z,97.48
2022-10-06T03:06:28.111Z,97.44
2022-10-06T03:09:08.470Z,97.44
2022-10-06T03:11:42.669Z,97.40
2022-10-06T03:14:19.088Z,97.46
2022-10-06T03:16:51.627Z,97.39
2022-10-06T03:19:28.414Z,97.36
2022-10-06T03:21:56.746Z,97.47
2022-10-06T03:24:33.242Z,97.34
2022-10-06T03:27:01.760Z,97.52
2022-10-06T03:29:31.732Z,97.52
2022-10-06T03:31:59.980Z,97.41
2022-10-06T03:34:29.492Z,97.29
2022-10-06T03:36:59.253Z,97.20
2022-10-06T03:39:28.649Z,97.05
2022-10-06T03:41:56.802Z,96.91
2022-10-06T03:44:24.874Z,96.89
2022-10-06T03:46:53.073Z,96.50
2022-10-06T03:49:21.121Z,96.18
2022-10-06T03:51:49.357Z,96.02
2022-10-06T03:54:22.217Z,96.04
2022-10-06T03:56:53.329Z,96.12
2022-10-06T03:59:21.621Z,96.17
2022-10-06T04:01:52.921Z,96.25
2022-10-06T04:04:27.371Z,96.41
2022-10-06T04:07:00.672Z,96.64
2022-10-06T04:09:28.709Z,96.70
2022-10-06T04:11:57.784Z,96.83
2022-10-06T04:14:26.139Z,96.68
2022-10-06T04:16:54.232Z,96.56
2022-10-06T04:19:26.488Z,96.38
2022-10-06T04:21:56.686Z,96.41
2022-10-06T04:24:27.688Z,96.48
2022-10-06T04:27:15.556Z,96.33
2022-10-06T04:29:45.763Z,96.03
2022-10-06T04:32:15.035Z,95.98
2022-10-06T04:34:43.038Z,96.08
2022-10-06T04:37:10.915Z,95.84
2022-10-06T04:39:39.996Z,95.68
2022-10-06T04:42:09.005Z,95.72
2022-10-06T04:44:41.189Z,95.75
2022-10-06T04:47:09.297Z,95.57
2022-10-06T04:49:37.201Z,95.62
2022-10-06T04:52:05.849Z,95.61
2022-10-06T04:54:36.333Z,95.57
2022-10-06T04:57:05.890Z,95.31
2022-10-06T04:59:52.244Z,95.27
2022-10-06T05:02:20.775Z,95.46
2022-10-06T05:04:52.289Z,95.63
2022-10-06T05:07:22.008Z,95.49
2022-10-06T05:09:49.893Z,95.42
2022-10-06T05:12:18.835Z,95.63
2022-10-06T05:14:46.911Z,95.62
2022-10-06T05:17:15.496Z,95.62
2022-10-06T05:19:43.712Z,95.71
2022-10-06T05:22:12.575Z,95.54
2022-10-06T05:24:40.738Z,95.64
2022-10-06T05:27:08.576Z,95.74
2022-10-06T05:29:36.448Z,95.80
2022-10-06T05:32:06.912Z,95.75
2022-10-06T05:34:36.698Z,95.80
2022-10-06T05:37:05.081Z,95.86
2022-10-06T05:39:33.615Z,95.85
2022-10-06T05:42:02.094Z,95.62
2022-10-06T05:44:30.572Z,95.64
2022-10-06T05:47:02.339Z,95.48
2022-10-06T05:49:30.336Z,95.72
2022-10-06T05:52:03.954Z,95.76
2022-10-06T05:54:38.822Z,95.74
2022-10-06T05:57:08.491Z,95.72
2022-10-06T05:59:39.370Z,95.68
2022-10-06T06:02:09.785Z,95.59
2022-10-06T06:04:42.616Z,95.56
2022-10-06T06:07:11.205Z,95.42
2022-10-06T06:09:41.526Z,95.33
2022-10-06T06:12:09.620Z,95.11
2022-10-06T06:15:28.471Z,95.07
2022-10-06T06:18:04.775Z,94.83
2022-10-06T06:20:34.241Z,94.83
2022-10-06T06:23:02.115Z,94.78
2022-10-06T06:25:31.318Z,94.64
2022-10-06T06:27:59.531Z,94.57
2022-10-06T06:30:27.690Z,93.68
2022-10-06T06:32:58.126Z,91.43
2022-10-06T06:35:25.977Z,89.06
2022-10-06T06:37:54.385Z,87.52
2022-10-06T06:40:22.693Z,85.48
2022-10-06T06:42:53.871Z,84.00
2022-10-06T06:45:54.094Z,82.18
2022-10-06T06:48:35.925Z,80.79
2022-10-06T06:51:05.120Z,80.89
2022-10-06T06:53:33.200Z,80.06
2022-10-06T06:56:04.032Z,79.56
2022-10-06T06:58:33.954Z,78.40
2022-10-06T07:01:13.644Z,77.41
2022-10-06T07:03:57.047Z,76.90
2022-10-06T07:06:28.831Z,77.58
2022-10-06T07:08:59.684Z,76.42
2022-10-06T07:11:31.018Z,76.87
2022-10-06T07:14:01.624Z,76.47
2022-10-06T07:16:49.783Z,75.88
2022-10-06T07:19:38.522Z,75.99
2022-10-06T07:22:28.922Z,74.76
2022-10-06T07:25:07.355Z,74.72
2022-10-06T07:27:45.768Z,74.89
2022-10-06T07:30:25.737Z,74.44
2022-10-06T07:33:09.330Z,74.14
2022-10-06T07:35:39.798Z,73.95
2022-10-06T07:38:08.568Z,73.35
2022-10-06T07:40:55.526Z,71.84
2022-10-06T07:43:34.101Z,72.83
2022-10-06T07:46:02.134Z,73.40
2022-10-06T07:48:40.575Z,73.56
2022-10-06T07:51:16.763Z,73.51
2022-10-06T07:53:50.807Z,74.15
2022-10-06T07:56:27.688Z,74.75
2022-10-06T07:58:58.742Z,75.66
2022-10-06T08:01:29.249Z,77.03
2022-10-06T08:03:57.582Z,78.12
2022-10-06T08:06:25.543Z,79.32
2022-10-06T08:08:54.342Z,79.01
2022-10-06T08:11:23.163Z,79.73
2022-10-06T08:13:51.967Z,79.47
2022-10-06T08:16:30.164Z,79.56
2022-10-06T08:18:59.415Z,79.52
2022-10-06T08:21:34.352Z,79.64
2022-10-06T08:24:02.769Z,79.72
2022-10-06T08:26:31.407Z,79.94
2022-10-06T08:29:03.055Z,79.57
2022-10-06T08:31:32.195Z,79.95
2022-10-06T08:34:01.309Z,79.74
2022-10-06T08:36:32.069Z,79.47
2022-10-06T08:39:01.144Z,78.94
2022-10-06T08:41:40.017Z,78.50
2022-10-06T08:44:17.247Z,78.73
2022-10-06T08:46:55.253Z,79.26
2022-10-06T08:49:25.831Z,78.32
2022-10-06T08:51:57.907Z,78.52
2022-10-06T08:54:48.694Z,78.10
2022-10-06T08:57:21.505Z,77.11
2022-10-06T08:59:53.966Z,77.14
2022-10-06T09:02:39.078Z,76.28
2022-10-06T09:05:07.897Z,76.30
2022-10-06T09:07:59.320Z,75.92
2022-10-06T09:11:04.812Z,76.01
2022-10-06T09:13:39.695Z,76.29
2022-10-06T09:16:15.659Z,76.09
2022-10-06T09:21:42.157Z,75.52
2022-10-06T09:24:24.968Z,75.18
2022-10-06T09:26:53.410Z,74.46
2022-10-06T09:29:21.327Z,74.68
2022-10-06T09:31:51.176Z,74.58
2022-10-06T09:34:31.140Z,73.80
2022-10-06T09:37:04.974Z,73.62
2022-10-06T09:39:36.972Z,74.09
2022-10-06T09:42:10.091Z,74.97
2022-10-06T09:45:23.459Z,74.02
2022-10-06T09:47:51.461Z,72.54
2022-10-06T09:50:25.044Z,72.40
2022-10-06T09:53:01.533Z,73.26
2022-10-06T09:55:47.707Z,74.25
2022-10-06T09:58:21.213Z,72.22
2022-10-06T10:01:05.657Z,70.63
2022-10-06T10:04:18.656Z,71.63
2022-10-06T10:06:43.372Z,71.17
2022-10-06T10:09:16.659Z,70.90
2022-10-06T10:12:18.030Z,70.00
2022-10-06T10:14:46.085Z,71.07
2022-10-06T10:17:38.137Z,71.01
2022-10-06T10:20:22.356Z,71.09
2022-10-06T10:22:51.194Z,70.76
2022-10-06T10:25:31.733Z,69.35
2022-10-06T10:28:09.931Z,69.52
2022-10-06T10:31:03.491Z,70.27
2022-10-06T10:33:43.234Z,69.50
2022-10-06T10:36:18.964Z,69.47
2022-10-06T10:38:47.911Z,70.73
2022-10-06T10:41:25.896Z,71.05
2022-10-06T10:44:04.239Z,70.95
2022-10-06T10:46:48.190Z,70.65
2022-10-06T10:49:28.394Z,70.53
2022-10-06T10:52:23.006Z,70.10
2022-10-06T10:54:57.345Z,70.23
2022-10-06T10:57:36.050Z,70.46
2022-10-06T11:00:25.353Z,70.16
2022-10-06T11:02:56.533Z,69.10
2022-10-06T11:05:34.665Z,68.99
2022-10-06T11:08:33.726Z,69.32
2022-10-06T11:11:06.116Z,69.35
2022-10-06T11:13:42.766Z,69.99
2022-10-06T11:16:16.474Z,69.10
2022-10-06T11:19:33.401Z,69.56
2022-10-06T11:22:04.151Z,68.60
2022-10-06T11:24:37.566Z,67.41
2022-10-06T11:27:19.428Z,67.50
2022-10-06T11:30:01.781Z,67.32
2022-10-06T11:32:51.541Z,67.53
2022-10-06T11:35:29.240Z,68.04
2022-10-06T11:38:04.225Z,67.55
2022-10-06T11:40:38.603Z,68.11
2022-10-06T11:43:27.658Z,67.07
2022-10-06T11:46:05.662Z,66.99
2022-10-06T11:48:34.574Z,66.48
2022-10-06T11:51:23.813Z,66.61
2022-10-06T11:53:52.761Z,66.99
2022-10-06T11:56:21.117Z,67.99
2022-10-06T11:58:51.991Z,67.74
2022-10-06T12:01:32.621Z,67.09
2022-10-06T12:04:15.513Z,65.55
2022-10-06T12:06:45.628Z,65.65
2022-10-06T12:09:32.963Z,64.25
2022-10-06T12:12:19.170Z,65.20
2022-10-06T12:18:21.915Z,65.75
2022-10-06T12:21:37.500Z,65.87
2022-10-06T12:24:18.832Z,65.87
2022-10-06T12:26:48.375Z,65.02
2022-10-06T12:29:25.418Z,64.80
2022-10-06T12:32:18.852Z,65.69
2022-10-06T12:35:15.534Z,65.37
2022-10-06T12:37:54.506Z,64.70
2022-10-06T12:40:47.088Z,64.50
2022-10-06T12:43:15.107Z,63.91
2022-10-06T12:45:46.255Z,64.90
2022-10-06T12:48:37.623Z,64.61
2022-10-06T12:51:18.621Z,64.91
2022-10-06T12:53:52.416Z,63.57
2022-10-06T12:56:29.486Z,63.68
2022-10-06T12:58:58.862Z,64.14
2022-10-06T13:01:28.108Z,64.68
2022-10-06T13:03:56.002Z,65.15
2022-10-06T13:06:27.750Z,65.14
2022-10-06T13:09:12.869Z,65.52
2022-10-06T13:11:40.751Z,65.90
2022-10-06T13:14:13.269Z,64.37
2022-10-06T13:16:45.233Z,63.79
2022-10-06T13:19:26.705Z,64.33
2022-10-06T13:21:54.721Z,64.13
2022-10-06T13:24:27.078Z,64.66
2022-10-06T13:26:56.151Z,63.31
2022-10-06T13:29:26.248Z,64.70
2022-10-06T13:31:55.693Z,63.36
2022-10-06T13:34:43.331Z,63.79
2022-10-06T13:37:15.910Z,64.13
2022-10-06T13:39:44.086Z,62.83
2022-10-06T13:42:20.362Z,62.97
2022-10-06T13:44:57.594Z,63.66
2022-10-06T13:47:29.397Z,61.74
2022-10-06T13:50:15.913Z,62.41
2022-10-06T13:52:48.552Z,62.69
2022-10-06T13:55:22.991Z,63.26
2022-10-06T13:57:51.799Z,64.08
2022-10-06T14:00:22.241Z,63.83
2022-10-06T14:03:11.780Z,63.87
2022-10-06T14:05:43.444Z,65.00
2022-10-06T14:08:11.531Z,64.95
2022-10-06T14:10:58.348Z,65.74
2022-10-06T14:13:29.500Z,65.95
2022-10-06T14:16:09.681Z,65.80
2022-10-06T14:18:40.379Z,64.27
2022-10-06T14:21:35.687Z,64.63
2022-10-06T14:24:17.052Z,63.81
2022-10-06T14:26:46.840Z,64.40
2022-10-06T14:29:15.244Z,64.63
2022-10-06T14:31:44.098Z,65.16
2022-10-06T14:34:22.731Z,64.06
2022-10-06T14:36:52.163Z,63.76
2022-10-06T14:39:20.313Z,63.00
2022-10-06T14:41:48.402Z,63.49
2022-10-06T14:44:16.682Z,63.74
2022-10-06T14:46:48.392Z,63.83
2022-10-06T14:49:17.634Z,64.55
2022-10-06T14:51:46.147Z,64.67
2022-10-06T14:54:14.102Z,64.88
2022-10-06T14:56:42.835Z,65.59
2022-10-06T14:59:16.818Z,65.88
2022-10-06T15:01:46.032Z,66.26
2022-10-06T15:04:24.889Z,66.37
2022-10-06T15:07:11.584Z,66.37
2022-10-06T15:09:39.474Z,67.12
2022-10-06T15:12:07.623Z,67.56
2022-10-06T15:14:39.835Z,67.22
2022-10-06T15:17:08.394Z,67.35
2022-10-06T15:19:36.657Z,66.27
2022-10-06T15:22:06.263Z,66.62
2022-10-06T15:24:34.741Z,66.75
2022-10-06T15:27:24.687Z,66.55
2022-10-06T15:29:53.327Z,66.41
2022-10-06T15:32:22.575Z,66.82
2022-10-06T15:34:52.430Z,67.19
2022-10-06T15:37:20.702Z,67.23
2022-10-06T15:39:52.154Z,66.75
2022-10-06T15:42:24.184Z,66.59
2022-10-06T15:44:52.536Z,66.64
2022-10-06T15:47:20.865Z,67.14
2022-10-06T15:49:49.349Z,66.51
2022-10-06T15:52:19.001Z,67.11
2022-10-06T15:54:50.222Z,66.64
2022-10-06T15:57:21.317Z,66.32
2022-10-06T15:59:49.999Z,66.44
2022-10-06T16:02:20.328Z,66.71
2022-10-06T16:05:05.048Z,66.75
2022-10-06T16:07:34.251Z,67.44
2022-10-06T16:10:02.622Z,68.03
2022-10-06T16:12:33.279Z,67.33
2022-10-06T16:15:01.534Z,67.58
2022-10-06T16:17:30.419Z,67.48
2022-10-06T16:19:58.489Z,68.26
2022-10-06T16:22:26.577Z,69.06
2022-10-06T16:24:54.676Z,68.95
2022-10-06T16:27:22.963Z,69.02
2022-10-06T16:29:51.146Z,69.63
2022-10-06T16:32:19.075Z,69.55
2022-10-06T16:34:50.437Z,69.38
2022-10-06T16:37:18.552Z,69.13
2022-10-06T16:39:46.416Z,69.70
2022-10-06T16:42:14.262Z,69.72
2022-10-06T16:44:42.159Z,70.35
2022-10-06T16:47:10.402Z,70.34
2022-10-06T16:49:38.224Z,70.90
2022-10-06T16:52:06.290Z,71.70
2022-10-06T16:54:34.055Z,71.75
2022-10-06T16:57:06.686Z,72.03
2022-10-06T16:59:34.808Z,72.47
2022-10-06T17:02:02.706Z,72.79
2022-10-06T17:04:30.567Z,73.20
2022-10-06T17:06:58.382Z,73.51
2022-10-06T17:09:28.091Z,74.18
2022-10-06T17:12:00.931Z,74.16
2022-10-06T17:14:30.599Z,74.53
2022-10-06T17:16:59.157Z,75.03
2022-10-06T17:19:29.244Z,75.36
2022-10-06T17:21:59.409Z,74.98
2022-10-06T17:24:29.200Z,74.56
2022-10-06T17:26:58.919Z,74.89
2022-10-06T17:29:27.219Z,75.44
2022-10-06T17:32:00.169Z,75.59
2022-10-06T17:34:32.434Z,75.94
2022-10-06T17:37:02.236Z,75.69
2022-10-06T17:39:30.204Z,75.70
2022-10-06T17:41:58.227Z,75.95
2022-10-06T17:44:27.835Z,75.84
2022-10-06T17:46:58.025Z,76.09
2022-10-06T17:49:26.234Z,76.29
2022-10-06T17:51:55.229Z,76.56
2022-10-06T17:54:25.300Z,77.05
2022-10-06T17:56:55.725Z,77.63
2022-10-06T17:59:28.647Z,78.02
2022-10-06T18:01:58.137Z,78.57
2022-10-06T18:04:27.065Z,79.17
2022-10-06T18:06:56.031Z,79.47
2022-10-06T18:09:24.317Z,79.88
2022-10-06T18:11:56.622Z,80.12
2022-10-06T18:14:27.106Z,80.73
2022-10-06T18:16:58.359Z,81.56
2022-10-06T18:19:36.539Z,81.80
2022-10-06T18:22:12.804Z,82.12
2022-10-06T18:24:41.494Z,82.50
2022-10-06T18:27:14.049Z,83.11
2022-10-06T18:29:41.974Z,83.58
2022-10-06T18:33:13.064Z,83.76
2022-10-06T18:37:46.262Z,84.00
2022-10-06T18:40:14.726Z,84.27
2022-10-06T18:42:42.784Z,84.40
2022-10-06T18:45:34.252Z,84.47
2022-10-06T18:48:23.562Z,85.06
2022-10-06T18:51:01.638Z,85.69
2022-10-06T18:53:33.401Z,85.82
2022-10-06T18:56:01.282Z,86.11
2022-10-06T18:58:29.396Z,86.64
2022-10-06T19:00:57.258Z,86.87
2022-10-06T19:03:27.896Z,87.08
2022-10-06T19:05:55.811Z,86.97
2022-10-06T19:08:23.805Z,87.25
2022-10-06T19:11:10.483Z,87.44
2022-10-06T19:13:38.303Z,87.52
2022-10-06T19:16:06.444Z,87.74
2022-10-06T19:18:36.566Z,88.08
2022-10-06T19:21:08.691Z,88.33
2022-10-06T19:23:38.698Z,88.30
2022-10-06T19:26:11.248Z,88.48
2022-10-06T19:28:39.690Z,88.52
2022-10-06T19:31:12.097Z,88.77
2022-10-06T19:33:40.771Z,88.86
2022-10-06T19:36:09.192Z,89.27
2022-10-06T19:38:38.618Z,89.80
2022-10-06T19:41:25.738Z,89.72
2022-10-06T19:43:53.748Z,89.66
2022-10-06T19:46:21.788Z,89.36
2022-10-06T19:48:54.921Z,89.58
2022-10-06T19:51:24.063Z,89.69
2022-10-06T19:53:52.058Z,90.02
2022-10-06T19:56:23.384Z,90.09
2022-10-06T19:58:52.132Z,90.35
2022-10-06T20:01:20.463Z,90.23
2022-10-06T20:03:48.568Z,90.29
2022-10-06T20:06:16.943Z,90.52
2022-10-06T20:08:45.053Z,90.42
2022-10-06T20:11:18.847Z,90.53
2022-10-06T20:13:48.096Z,90.53
2022-10-06T20:16:18.809Z,90.98
2022-10-06T20:18:50.789Z,90.81
2022-10-06T20:21:21.885Z,90.92
2022-10-06T20:23:56.266Z,90.91
2022-10-06T20:26:29.527Z,91.21
2022-10-06T20:29:01.679Z,91.67
2022-10-06T20:31:35.917Z,91.83
2022-10-06T20:34:07.139Z,91.68
2022-10-06T20:36:38.255Z,91.77
2022-10-06T20:39:26.320Z,91.70
2022-10-06T20:41:56.090Z,91.96
2022-10-06T20:44:24.166Z,92.14
2022-10-06T20:46:54.454Z,91.92
2022-10-06T20:49:23.027Z,92.05
2022-10-06T20:51:52.155Z,92.07
2022-10-06T20:54:23.880Z,92.16
2022-10-06T20:56:53.904Z,92.34
2022-10-06T20:59:23.842Z,92.49
2022-10-06T21:01:52.365Z,92.61
2022-10-06T21:04:21.071Z,92.73
2022-10-06T21:06:49.310Z,92.55
2022-10-06T21:09:19.423Z,92.13
2022-10-06T21:11:48.512Z,92.38
2022-10-06T21:14:17.554Z,92.70
2022-10-06T21:16:48.216Z,92.77
2022-10-06T21:19:20.538Z,92.82
2022-10-06T21:21:52.284Z,92.97
2022-10-06T21:24:22.790Z,93.36
2022-10-06T21:26:52.566Z,93.35
2022-10-06T21:29:21.511Z,93.17
2022-10-06T21:31:50.964Z,93.11
2022-10-06T21:34:21.382Z,93.39
2022-10-06T21:36:50.343Z,93.64
2022-10-06T21:39:18.268Z,93.82
2022-10-06T21:41:46.104Z,93.64
2022-10-06T21:44:19.597Z,93.78
2022-10-06T21:46:51.640Z,93.98
2022-10-06T21:49:21.648Z,94.07
2022-10-06T21:51:52.269Z,94.08
2022-10-06T21:54:21.658Z,93.97
2022-10-06T21:56:49.783Z,93.85
2022-10-06T21:59:18.276Z,94.10
2022-10-06T22:01:47.745Z,93.95
2022-10-06T22:04:17.002Z,93.95
2022-10-06T22:06:50.128Z,93.91
2022-10-06T22:09:20.772Z,93.92
2022-10-06T22:11:49.832Z,93.89
2022-10-06T22:14:21.714Z,93.95
2022-10-06T22:16:49.833Z,94.05
2022-10-06T22:19:18.912Z,94.10
2022-10-06T22:21:48.714Z,94.37
2022-10-06T22:24:20.704Z,94.34
2022-10-06T22:26:49.764Z,94.13
2022-10-06T22:29:20.089Z,94.41
2022-10-06T22:31:48.924Z,94.43
2022-10-06T22:34:19.580Z,94.45
2022-10-06T22:36:48.116Z,94.69
2022-10-06T22:39:16.698Z,94.71
2022-10-06T22:41:45.551Z,94.76
2022-10-06T22:44:13.871Z,94.81
2022-10-06T22:46:42.312Z,95.05
2022-10-06T22:49:10.721Z,95.39
2022-10-06T22:51:38.545Z,95.11
2022-10-06T22:54:06.619Z,95.20
2022-10-06T22:56:35.225Z,95.25
2022-10-06T22:59:03.800Z,95.50
2022-10-06T23:01:32.104Z,95.49
2022-10-06T23:04:00.302Z,95.35
2022-10-06T23:06:32.755Z,95.26
2022-10-06T23:09:02.383Z,95.65
2022-10-06T23:11:30.899Z,95.59
2022-10-06T23:14:00.698Z,95.29
2022-10-06T23:16:29.055Z,94.61
2022-10-06T23:18:57.618Z,94.68
2022-10-06T23:21:27.830Z,94.84
2022-10-06T23:23:59.370Z,94.55
2022-10-06T23:26:29.371Z,94.08
2022-10-06T23:29:00.611Z,93.67
2022-10-06T23:31:29.612Z,93.58
2022-10-06T23:33:58.439Z,93.69
2022-10-06T23:36:26.770Z,94.18
2022-10-06T23:38:55.908Z,93.97
2022-10-06T23:41:24.143Z,94.33
2022-10-06T23:43:52.531Z,94.35
2022-10-06T23:46:20.874Z,94.51
2022-10-06T23:48:49.394Z,94.89
2022-10-06T23:51:17.592Z,94.65
2022-10-06T23:53:45.648Z,94.65
2022-10-06T23:56:13.694Z,94.66
2022-10-06T23:58:42.484Z,95.00
